sensor_id;sensor_type;location;lat;lon;timestamp;P1;durP1;ratioP1;P2;durP2;ratioP2
52432;SDS011;38352;53.244;6.594;2023-04-06T00:01:52;14.35;;;8.20;;
52432;SDS011;38352;53.244;6.594;2023-04-06T00:04:18;14.82;;;8.07;;
52432;SDS011;38352;53.244;6.594;2023-04-06T00:06:44;19.40;;;10.20;;
52432;SDS011;38352;53.244;6.594;2023-04-06T00:09:10;19.00;;;10.10;;
52432;SDS011;38352;53.244;6.594;2023-04-06T00:11:36;16.48;;;9.48;;
52432;SDS011;38352;53.244;6.594;2023-04-06T00:14:06;14.05;;;8.93;;
52432;SDS011;38352;53.244;6.594;2023-04-06T00:16:32;13.85;;;8.38;;
52432;SDS011;38352;53.244;6.594;2023-04-06T00:18:58;15.05;;;8.82;;
52432;SDS011;38352;53.244;6.594;2023-04-06T00:21:24;15.65;;;9.23;;
52432;SDS011;38352;53.244;6.594;2023-04-06T00:23:51;16.60;;;8.65;;
52432;SDS011;38352;53.244;6.594;2023-04-06T00:26:17;12.98;;;8.48;;
52432;SDS011;38352;53.244;6.594;2023-04-06T00:28:43;15.20;;;9.45;;
52432;SDS011;38352;53.244;6.594;2023-04-06T00:31:09;14.40;;;8.63;;
52432;SDS011;38352;53.244;6.594;2023-04-06T00:33:35;18.30;;;9.57;;
52432;SDS011;38352;53.244;6.594;2023-04-06T00:36:01;14.48;;;8.68;;
52432;SDS011;38352;53.244;6.594;2023-04-06T00:38:27;15.02;;;9.20;;
52432;SDS011;38352;53.244;6.594;2023-04-06T00:40:53;16.20;;;9.43;;
52432;SDS011;38352;53.244;6.594;2023-04-06T00:43:19;15.45;;;8.82;;
52432;SDS011;38352;53.244;6.594;2023-04-06T00:45:46;15.00;;;9.98;;
52432;SDS011;38352;53.244;6.594;2023-04-06T00:48:12;11.73;;;8.35;;
52432;SDS011;38352;53.244;6.594;2023-04-06T00:50:38;13.90;;;8.77;;
52432;SDS011;38352;53.244;6.594;2023-04-06T00:53:04;16.33;;;9.23;;
52432;SDS011;38352;53.244;6.594;2023-04-06T00:55:30;13.35;;;8.40;;
52432;SDS011;38352;53.244;6.594;2023-04-06T00:57:57;15.23;;;9.32;;
52432;SDS011;38352;53.244;6.594;2023-04-06T01:00:25;14.63;;;9.57;;
52432;SDS011;38352;53.244;6.594;2023-04-06T01:02:52;12.30;;;8.48;;
52432;SDS011;38352;53.244;6.594;2023-04-06T01:05:18;13.77;;;8.95;;
52432;SDS011;38352;53.244;6.594;2023-04-06T01:07:48;15.70;;;8.88;;
52432;SDS011;38352;53.244;6.594;2023-04-06T01:10:26;12.63;;;8.85;;
52432;SDS011;38352;53.244;6.594;2023-04-06T01:12:53;18.00;;;9.88;;
52432;SDS011;38352;53.244;6.594;2023-04-06T01:15:19;14.95;;;9.65;;
52432;SDS011;38352;53.244;6.594;2023-04-06T01:17:46;17.55;;;9.48;;
52432;SDS011;38352;53.244;6.594;2023-04-06T01:20:12;15.60;;;8.80;;
52432;SDS011;38352;53.244;6.594;2023-04-06T01:22:38;16.75;;;10.02;;
52432;SDS011;38352;53.244;6.594;2023-04-06T01:25:05;16.77;;;10.30;;
52432;SDS011;38352;53.244;6.594;2023-04-06T01:27:31;19.10;;;9.68;;
52432;SDS011;38352;53.244;6.594;2023-04-06T01:29:57;15.40;;;9.00;;
52432;SDS011;38352;53.244;6.594;2023-04-06T01:32:24;14.75;;;9.27;;
52432;SDS011;38352;53.244;6.594;2023-04-06T01:34:50;17.58;;;9.82;;
52432;SDS011;38352;53.244;6.594;2023-04-06T01:37:16;18.25;;;10.77;;
52432;SDS011;38352;53.244;6.594;2023-04-06T01:39:43;13.93;;;9.40;;
52432;SDS011;38352;53.244;6.594;2023-04-06T01:42:09;16.73;;;8.75;;
52432;SDS011;38352;53.244;6.594;2023-04-06T01:44:36;14.93;;;9.65;;
52432;SDS011;38352;53.244;6.594;2023-04-06T01:47:02;17.38;;;9.85;;
52432;SDS011;38352;53.244;6.594;2023-04-06T01:49:28;14.27;;;9.52;;
52432;SDS011;38352;53.244;6.594;2023-04-06T01:51:57;17.83;;;9.90;;
52432;SDS011;38352;53.244;6.594;2023-04-06T01:54:23;14.38;;;10.02;;
52432;SDS011;38352;53.244;6.594;2023-04-06T01:56:49;14.65;;;8.98;;
52432;SDS011;38352;53.244;6.594;2023-04-06T01:59:16;19.38;;;10.13;;
52432;SDS011;38352;53.244;6.594;2023-04-06T02:01:42;16.75;;;9.70;;
52432;SDS011;38352;53.244;6.594;2023-04-06T02:04:08;15.90;;;9.35;;
52432;SDS011;38352;53.244;6.594;2023-04-06T02:06:36;15.88;;;9.90;;
52432;SDS011;38352;53.244;6.594;2023-04-06T02:09:02;14.35;;;9.38;;
52432;SDS011;38352;53.244;6.594;2023-04-06T02:11:28;16.85;;;10.98;;
52432;SDS011;38352;53.244;6.594;2023-04-06T02:13:55;16.73;;;10.30;;
52432;SDS011;38352;53.244;6.594;2023-04-06T02:16:21;15.65;;;9.75;;
52432;SDS011;38352;53.244;6.594;2023-04-06T02:18:48;16.13;;;9.60;;
52432;SDS011;38352;53.244;6.594;2023-04-06T02:21:15;16.08;;;9.85;;
52432;SDS011;38352;53.244;6.594;2023-04-06T02:23:45;15.48;;;9.45;;
52432;SDS011;38352;53.244;6.594;2023-04-06T02:26:11;16.30;;;10.13;;
52432;SDS011;38352;53.244;6.594;2023-04-06T02:28:37;15.77;;;10.02;;
52432;SDS011;38352;53.244;6.594;2023-04-06T02:31:04;16.90;;;9.88;;
52432;SDS011;38352;53.244;6.594;2023-04-06T02:33:30;16.15;;;9.88;;
52432;SDS011;38352;53.244;6.594;2023-04-06T02:35:56;16.92;;;9.45;;
52432;SDS011;38352;53.244;6.594;2023-04-06T02:38:22;13.32;;;9.98;;
52432;SDS011;38352;53.244;6.594;2023-04-06T02:40:48;18.02;;;10.57;;
52432;SDS011;38352;53.244;6.594;2023-04-06T02:43:14;15.52;;;10.30;;
52432;SDS011;38352;53.244;6.594;2023-04-06T02:45:42;16.00;;;9.63;;
52432;SDS011;38352;53.244;6.594;2023-04-06T02:48:08;17.55;;;11.25;;
52432;SDS011;38352;53.244;6.594;2023-04-06T02:50:35;18.10;;;9.85;;
52432;SDS011;38352;53.244;6.594;2023-04-06T02:53:04;17.63;;;10.18;;
52432;SDS011;38352;53.244;6.594;2023-04-06T02:55:30;19.92;;;10.98;;
52432;SDS011;38352;53.244;6.594;2023-04-06T02:57:56;16.63;;;9.77;;
52432;SDS011;38352;53.244;6.594;2023-04-06T03:00:22;17.73;;;11.02;;
52432;SDS011;38352;53.244;6.594;2023-04-06T03:02:48;17.50;;;10.93;;
52432;SDS011;38352;53.244;6.594;2023-04-06T03:05:15;15.27;;;10.30;;
52432;SDS011;38352;53.244;6.594;2023-04-06T03:07:41;15.80;;;10.48;;
52432;SDS011;38352;53.244;6.594;2023-04-06T03:10:07;17.20;;;10.48;;
52432;SDS011;38352;53.244;6.594;2023-04-06T03:12:34;15.98;;;9.98;;
52432;SDS011;38352;53.244;6.594;2023-04-06T03:15:04;18.02;;;9.80;;
52432;SDS011;38352;53.244;6.594;2023-04-06T03:17:30;18.63;;;11.15;;
52432;SDS011;38352;53.244;6.594;2023-04-06T03:19:56;14.80;;;9.95;;
52432;SDS011;38352;53.244;6.594;2023-04-06T03:22:22;15.60;;;10.40;;
52432;SDS011;38352;53.244;6.594;2023-04-06T03:24:48;16.65;;;10.02;;
52432;SDS011;38352;53.244;6.594;2023-04-06T03:27:14;19.35;;;10.38;;
52432;SDS011;38352;53.244;6.594;2023-04-06T03:29:40;16.80;;;9.85;;
52432;SDS011;38352;53.244;6.594;2023-04-06T03:32:06;18.90;;;10.65;;
52432;SDS011;38352;53.244;6.594;2023-04-06T03:34:32;17.17;;;10.60;;
52432;SDS011;38352;53.244;6.594;2023-04-06T03:36:58;15.25;;;9.98;;
52432;SDS011;38352;53.244;6.594;2023-04-06T03:39:25;16.52;;;10.57;;
52432;SDS011;38352;53.244;6.594;2023-04-06T03:41:51;15.70;;;9.95;;
52432;SDS011;38352;53.244;6.594;2023-04-06T03:44:17;17.17;;;10.07;;
52432;SDS011;38352;53.244;6.594;2023-04-06T03:46:43;17.60;;;10.40;;
52432;SDS011;38352;53.244;6.594;2023-04-06T03:49:09;18.33;;;9.93;;
52432;SDS011;38352;53.244;6.594;2023-04-06T03:51:35;18.85;;;10.52;;
52432;SDS011;38352;53.244;6.594;2023-04-06T03:54:01;17.38;;;10.40;;
52432;SDS011;38352;53.244;6.594;2023-04-06T03:56:27;17.85;;;10.63;;
52432;SDS011;38352;53.244;6.594;2023-04-06T03:58:53;17.55;;;11.10;;
52432;SDS011;38352;53.244;6.594;2023-04-06T04:01:19;21.67;;;11.23;;
52432;SDS011;38352;53.244;6.594;2023-04-06T04:03:45;20.55;;;10.95;;
52432;SDS011;38352;53.244;6.594;2023-04-06T04:06:12;18.73;;;10.68;;
52432;SDS011;38352;53.244;6.594;2023-04-06T04:08:38;18.25;;;10.82;;
52432;SDS011;38352;53.244;6.594;2023-04-06T04:11:04;18.95;;;11.30;;
52432;SDS011;38352;53.244;6.594;2023-04-06T04:13:30;19.15;;;10.77;;
52432;SDS011;38352;53.244;6.594;2023-04-06T04:15:56;20.50;;;11.82;;
52432;SDS011;38352;53.244;6.594;2023-04-06T04:18:22;17.25;;;10.27;;
52432;SDS011;38352;53.244;6.594;2023-04-06T04:20:48;19.17;;;11.48;;
52432;SDS011;38352;53.244;6.594;2023-04-06T04:23:14;15.38;;;10.13;;
52432;SDS011;38352;53.244;6.594;2023-04-06T04:25:41;17.15;;;10.57;;
52432;SDS011;38352;53.244;6.594;2023-04-06T04:28:08;18.10;;;10.45;;
52432;SDS011;38352;53.244;6.594;2023-04-06T04:30:34;19.25;;;11.07;;
52432;SDS011;38352;53.244;6.594;2023-04-06T04:33:00;17.65;;;10.05;;
52432;SDS011;38352;53.244;6.594;2023-04-06T04:35:26;18.25;;;10.43;;
52432;SDS011;38352;53.244;6.594;2023-04-06T04:37:52;18.88;;;11.20;;
52432;SDS011;38352;53.244;6.594;2023-04-06T04:40:18;19.90;;;11.75;;
52432;SDS011;38352;53.244;6.594;2023-04-06T04:42:45;16.52;;;9.95;;
52432;SDS011;38352;53.244;6.594;2023-04-06T04:45:11;17.63;;;11.07;;
52432;SDS011;38352;53.244;6.594;2023-04-06T04:47:37;19.75;;;10.95;;
52432;SDS011;38352;53.244;6.594;2023-04-06T04:50:04;19.45;;;11.18;;
52432;SDS011;38352;53.244;6.594;2023-04-06T04:52:30;18.15;;;10.75;;
52432;SDS011;38352;53.244;6.594;2023-04-06T04:54:56;17.85;;;10.90;;
52432;SDS011;38352;53.244;6.594;2023-04-06T04:57:22;15.93;;;10.38;;
52432;SDS011;38352;53.244;6.594;2023-04-06T04:59:48;15.48;;;10.13;;
52432;SDS011;38352;53.244;6.594;2023-04-06T05:02:16;16.95;;;10.25;;
52432;SDS011;38352;53.244;6.594;2023-04-06T05:04:42;17.73;;;11.75;;
52432;SDS011;38352;53.244;6.594;2023-04-06T05:07:08;19.17;;;10.52;;
52432;SDS011;38352;53.244;6.594;2023-04-06T05:09:34;19.92;;;11.35;;
52432;SDS011;38352;53.244;6.594;2023-04-06T05:12:01;16.13;;;10.70;;
52432;SDS011;38352;53.244;6.594;2023-04-06T05:14:27;15.52;;;10.38;;
52432;SDS011;38352;53.244;6.594;2023-04-06T05:16:53;20.80;;;10.38;;
52432;SDS011;38352;53.244;6.594;2023-04-06T05:19:20;20.25;;;10.00;;
52432;SDS011;38352;53.244;6.594;2023-04-06T05:21:47;15.35;;;11.20;;
52432;SDS011;38352;53.244;6.594;2023-04-06T05:24:13;14.82;;;9.55;;
52432;SDS011;38352;53.244;6.594;2023-04-06T05:26:40;16.00;;;9.57;;
52432;SDS011;38352;53.244;6.594;2023-04-06T05:29:06;18.40;;;9.98;;
52432;SDS011;38352;53.244;6.594;2023-04-06T05:31:33;16.27;;;10.30;;
52432;SDS011;38352;53.244;6.594;2023-04-06T05:33:59;19.17;;;11.18;;
52432;SDS011;38352;53.244;6.594;2023-04-06T05:36:25;18.88;;;10.55;;
52432;SDS011;38352;53.244;6.594;2023-04-06T05:38:51;16.90;;;9.95;;
52432;SDS011;38352;53.244;6.594;2023-04-06T05:41:18;17.88;;;10.48;;
52432;SDS011;38352;53.244;6.594;2023-04-06T05:43:45;15.95;;;10.10;;
52432;SDS011;38352;53.244;6.594;2023-04-06T05:46:11;15.05;;;9.68;;
52432;SDS011;38352;53.244;6.594;2023-04-06T05:48:37;17.40;;;9.90;;
52432;SDS011;38352;53.244;6.594;2023-04-06T05:51:03;14.57;;;9.30;;
52432;SDS011;38352;53.244;6.594;2023-04-06T05:53:31;15.25;;;9.02;;
52432;SDS011;38352;53.244;6.594;2023-04-06T05:56:01;15.18;;;9.35;;
52432;SDS011;38352;53.244;6.594;2023-04-06T05:58:27;13.20;;;9.27;;
52432;SDS011;38352;53.244;6.594;2023-04-06T06:01:00;14.88;;;8.70;;
52432;SDS011;38352;53.244;6.594;2023-04-06T06:03:26;14.75;;;9.73;;
52432;SDS011;38352;53.244;6.594;2023-04-06T06:05:52;15.20;;;9.90;;
52432;SDS011;38352;53.244;6.594;2023-04-06T06:08:18;15.40;;;8.95;;
52432;SDS011;38352;53.244;6.594;2023-04-06T06:10:44;13.95;;;9.68;;
52432;SDS011;38352;53.244;6.594;2023-04-06T06:13:11;15.70;;;10.35;;
52432;SDS011;38352;53.244;6.594;2023-04-06T06:15:37;15.88;;;9.13;;
52432;SDS011;38352;53.244;6.594;2023-04-06T06:18:03;16.13;;;9.60;;
52432;SDS011;38352;53.244;6.594;2023-04-06T06:20:29;16.10;;;9.93;;
52432;SDS011;38352;53.244;6.594;2023-04-06T06:22:55;14.57;;;8.88;;
52432;SDS011;38352;53.244;6.594;2023-04-06T06:25:21;13.15;;;9.18;;
52432;SDS011;38352;53.244;6.594;2023-04-06T06:27:47;16.08;;;10.45;;
52432;SDS011;38352;53.244;6.594;2023-04-06T06:30:14;15.60;;;9.43;;
52432;SDS011;38352;53.244;6.594;2023-04-06T06:32:40;15.45;;;9.32;;
52432;SDS011;38352;53.244;6.594;2023-04-06T06:35:06;15.80;;;9.45;;
52432;SDS011;38352;53.244;6.594;2023-04-06T06:37:32;14.30;;;9.23;;
52432;SDS011;38352;53.244;6.594;2023-04-06T06:39:58;12.43;;;8.68;;
52432;SDS011;38352;53.244;6.594;2023-04-06T06:42:25;17.00;;;10.27;;
52432;SDS011;38352;53.244;6.594;2023-04-06T06:44:51;16.73;;;9.13;;
52432;SDS011;38352;53.244;6.594;2023-04-06T06:47:17;15.95;;;9.15;;
52432;SDS011;38352;53.244;6.594;2023-04-06T06:49:44;15.27;;;9.57;;
52432;SDS011;38352;53.244;6.594;2023-04-06T06:52:10;14.90;;;9.77;;
52432;SDS011;38352;53.244;6.594;2023-04-06T06:54:36;14.43;;;9.73;;
52432;SDS011;38352;53.244;6.594;2023-04-06T06:57:02;15.05;;;10.38;;
52432;SDS011;38352;53.244;6.594;2023-04-06T06:59:28;14.88;;;10.10;;
52432;SDS011;38352;53.244;6.594;2023-04-06T07:01:54;15.57;;;9.93;;
52432;SDS011;38352;53.244;6.594;2023-04-06T07:04:23;17.73;;;10.40;;
52432;SDS011;38352;53.244;6.594;2023-04-06T07:06:49;15.63;;;9.40;;
52432;SDS011;38352;53.244;6.594;2023-04-06T07:09:16;16.67;;;9.65;;
52432;SDS011;38352;53.244;6.594;2023-04-06T07:11:42;17.67;;;10.50;;
52432;SDS011;38352;53.244;6.594;2023-04-06T07:14:08;15.45;;;9.88;;
52432;SDS011;38352;53.244;6.594;2023-04-06T07:16:34;16.17;;;9.95;;
52432;SDS011;38352;53.244;6.594;2023-04-06T07:19:00;16.75;;;10.23;;
52432;SDS011;38352;53.244;6.594;2023-04-06T07:21:26;14.13;;;9.32;;
52432;SDS011;38352;53.244;6.594;2023-04-06T07:23:52;13.90;;;9.15;;
52432;SDS011;38352;53.244;6.594;2023-04-06T07:26:19;17.15;;;9.23;;
52432;SDS011;38352;53.244;6.594;2023-04-06T07:28:45;18.00;;;9.82;;
52432;SDS011;38352;53.244;6.594;2023-04-06T07:31:11;17.70;;;9.82;;
52432;SDS011;38352;53.244;6.594;2023-04-06T07:33:37;14.93;;;9.88;;
52432;SDS011;38352;53.244;6.594;2023-04-06T07:36:03;18.17;;;10.25;;
52432;SDS011;38352;53.244;6.594;2023-04-06T07:38:29;14.43;;;9.05;;
52432;SDS011;38352;53.244;6.594;2023-04-06T07:40:55;16.23;;;10.23;;
52432;SDS011;38352;53.244;6.594;2023-04-06T07:43:22;15.45;;;9.48;;
52432;SDS011;38352;53.244;6.594;2023-04-06T07:45:48;17.17;;;9.68;;
52432;SDS011;38352;53.244;6.594;2023-04-06T07:48:14;21.13;;;10.75;;
52432;SDS011;38352;53.244;6.594;2023-04-06T07:50:40;15.90;;;9.90;;
52432;SDS011;38352;53.244;6.594;2023-04-06T07:53:08;18.75;;;10.60;;
52432;SDS011;38352;53.244;6.594;2023-04-06T07:55:34;14.60;;;9.60;;
52432;SDS011;38352;53.244;6.594;2023-04-06T07:58:00;16.35;;;10.23;;
52432;SDS011;38352;53.244;6.594;2023-04-06T08:00:26;17.98;;;10.20;;
52432;SDS011;38352;53.244;6.594;2023-04-06T08:02:53;16.35;;;10.23;;
52432;SDS011;38352;53.244;6.594;2023-04-06T08:05:19;14.60;;;10.73;;
52432;SDS011;38352;53.244;6.594;2023-04-06T08:07:45;15.18;;;9.48;;
52432;SDS011;38352;53.244;6.594;2023-04-06T08:10:11;15.98;;;9.45;;
52432;SDS011;38352;53.244;6.594;2023-04-06T08:12:37;18.45;;;10.40;;
52432;SDS011;38352;53.244;6.594;2023-04-06T08:15:04;15.98;;;10.43;;
52432;SDS011;38352;53.244;6.594;2023-04-06T08:17:31;16.98;;;9.93;;
52432;SDS011;38352;53.244;6.594;2023-04-06T08:19:58;15.57;;;9.98;;
52432;SDS011;38352;53.244;6.594;2023-04-06T08:22:25;17.05;;;10.82;;
52432;SDS011;38352;53.244;6.594;2023-04-06T08:24:51;14.43;;;10.30;;
52432;SDS011;38352;53.244;6.594;2023-04-06T08:27:17;17.73;;;10.27;;
52432;SDS011;38352;53.244;6.594;2023-04-06T08:29:43;16.27;;;10.27;;
52432;SDS011;38352;53.244;6.594;2023-04-06T08:32:10;16.80;;;10.38;;
52432;SDS011;38352;53.244;6.594;2023-04-06T08:34:36;15.82;;;11.00;;
52432;SDS011;38352;53.244;6.594;2023-04-06T08:37:02;13.70;;;9.95;;
52432;SDS011;38352;53.244;6.594;2023-04-06T08:39:28;16.83;;;10.75;;
52432;SDS011;38352;53.244;6.594;2023-04-06T08:41:55;15.65;;;9.48;;
52432;SDS011;38352;53.244;6.594;2023-04-06T08:44:23;17.35;;;11.00;;
52432;SDS011;38352;53.244;6.594;2023-04-06T08:46:49;18.52;;;11.25;;
52432;SDS011;38352;53.244;6.594;2023-04-06T08:49:15;15.52;;;10.65;;
52432;SDS011;38352;53.244;6.594;2023-04-06T08:51:42;13.88;;;10.32;;
52432;SDS011;38352;53.244;6.594;2023-04-06T08:54:08;14.25;;;9.43;;
52432;SDS011;38352;53.244;6.594;2023-04-06T08:56:36;14.60;;;9.68;;
52432;SDS011;38352;53.244;6.594;2023-04-06T08:59:03;16.55;;;9.48;;
52432;SDS011;38352;53.244;6.594;2023-04-06T09:01:29;15.07;;;10.13;;
52432;SDS011;38352;53.244;6.594;2023-04-06T09:03:57;13.95;;;10.25;;
52432;SDS011;38352;53.244;6.594;2023-04-06T09:06:24;15.75;;;9.73;;
52432;SDS011;38352;53.244;6.594;2023-04-06T09:08:51;16.27;;;9.27;;
52432;SDS011;38352;53.244;6.594;2023-04-06T09:11:20;12.90;;;9.73;;
52432;SDS011;38352;53.244;6.594;2023-04-06T09:13:50;16.75;;;9.32;;
52432;SDS011;38352;53.244;6.594;2023-04-06T09:16:17;15.52;;;9.05;;
52432;SDS011;38352;53.244;6.594;2023-04-06T09:18:43;16.48;;;9.88;;
52432;SDS011;38352;53.244;6.594;2023-04-06T09:21:10;19.80;;;9.88;;
52432;SDS011;38352;53.244;6.594;2023-04-06T09:23:36;12.98;;;9.48;;
52432;SDS011;38352;53.244;6.594;2023-04-06T09:31:07;17.55;;;9.65;;
52432;SDS011;38352;53.244;6.594;2023-04-06T09:33:37;12.68;;;9.65;;
52432;SDS011;38352;53.244;6.594;2023-04-06T09:36:03;14.30;;;9.48;;
52432;SDS011;38352;53.244;6.594;2023-04-06T09:38:36;14.57;;;9.80;;
52432;SDS011;38352;53.244;6.594;2023-04-06T09:41:02;14.43;;;8.75;;
52432;SDS011;38352;53.244;6.594;2023-04-06T09:43:28;15.55;;;10.27;;
52432;SDS011;38352;53.244;6.594;2023-04-06T09:45:55;15.90;;;9.25;;
52432;SDS011;38352;53.244;6.594;2023-04-06T09:48:21;17.92;;;9.88;;
52432;SDS011;38352;53.244;6.594;2023-04-06T09:50:49;13.70;;;9.48;;
52432;SDS011;38352;53.244;6.594;2023-04-06T09:53:17;13.93;;;9.55;;
52432;SDS011;38352;53.244;6.594;2023-04-06T09:55:43;18.35;;;10.02;;
52432;SDS011;38352;53.244;6.594;2023-04-06T09:58:15;15.57;;;10.18;;
52432;SDS011;38352;53.244;6.594;2023-04-06T10:00:54;13.93;;;10.43;;
52432;SDS011;38352;53.244;6.594;2023-04-06T10:05:55;15.55;;;10.30;;
52432;SDS011;38352;53.244;6.594;2023-04-06T10:08:24;16.80;;;10.40;;
52432;SDS011;38352;53.244;6.594;2023-04-06T10:10:51;17.13;;;10.07;;
52432;SDS011;38352;53.244;6.594;2023-04-06T10:13:17;19.25;;;11.57;;
52432;SDS011;38352;53.244;6.594;2023-04-06T10:15:44;17.65;;;11.60;;
52432;SDS011;38352;53.244;6.594;2023-04-06T10:18:11;16.58;;;11.27;;
52432;SDS011;38352;53.244;6.594;2023-04-06T10:20:47;22.60;;;11.40;;
52432;SDS011;38352;53.244;6.594;2023-04-06T10:23:29;17.75;;;11.60;;
52432;SDS011;38352;53.244;6.594;2023-04-06T10:25:57;17.85;;;11.32;;
52432;SDS011;38352;53.244;6.594;2023-04-06T10:28:24;18.73;;;12.07;;
52432;SDS011;38352;53.244;6.594;2023-04-06T10:30:56;17.90;;;11.85;;
52432;SDS011;38352;53.244;6.594;2023-04-06T10:33:23;21.15;;;11.73;;
52432;SDS011;38352;53.244;6.594;2023-04-06T10:35:49;17.20;;;11.60;;
52432;SDS011;38352;53.244;6.594;2023-04-06T10:38:15;16.95;;;11.95;;
52432;SDS011;38352;53.244;6.594;2023-04-06T10:40:46;21.70;;;12.00;;
52432;SDS011;38352;53.244;6.594;2023-04-06T10:43:13;18.90;;;11.45;;
52432;SDS011;38352;53.244;6.594;2023-04-06T10:45:40;23.63;;;13.10;;
52432;SDS011;38352;53.244;6.594;2023-04-06T10:48:14;17.65;;;12.38;;
52432;SDS011;38352;53.244;6.594;2023-04-06T10:50:41;20.55;;;13.13;;
52432;SDS011;38352;53.244;6.594;2023-04-06T10:53:07;18.35;;;13.90;;
52432;SDS011;38352;53.244;6.594;2023-04-06T10:55:34;20.63;;;13.57;;
52432;SDS011;38352;53.244;6.594;2023-04-06T10:58:00;22.15;;;12.85;;
52432;SDS011;38352;53.244;6.594;2023-04-06T11:00:26;21.70;;;13.90;;
52432;SDS011;38352;53.244;6.594;2023-04-06T11:02:58;23.75;;;13.38;;
52432;SDS011;38352;53.244;6.594;2023-04-06T11:05:24;24.92;;;15.00;;
52432;SDS011;38352;53.244;6.594;2023-04-06T11:07:51;23.02;;;14.80;;
52432;SDS011;38352;53.244;6.594;2023-04-06T11:10:21;21.30;;;13.63;;
52432;SDS011;38352;53.244;6.594;2023-04-06T11:12:52;22.10;;;14.20;;
52432;SDS011;38352;53.244;6.594;2023-04-06T11:15:18;18.60;;;14.30;;
52432;SDS011;38352;53.244;6.594;2023-04-06T11:17:44;21.13;;;13.55;;
52432;SDS011;38352;53.244;6.594;2023-04-06T11:20:11;22.85;;;14.48;;
52432;SDS011;38352;53.244;6.594;2023-04-06T11:22:50;22.83;;;15.15;;
52432;SDS011;38352;53.244;6.594;2023-04-06T11:25:17;24.00;;;15.07;;
52432;SDS011;38352;53.244;6.594;2023-04-06T11:27:44;26.48;;;16.98;;
52432;SDS011;38352;53.244;6.594;2023-04-06T11:30:10;26.67;;;18.75;;
52432;SDS011;38352;53.244;6.594;2023-04-06T11:32:43;30.85;;;19.35;;
52432;SDS011;38352;53.244;6.594;2023-04-06T11:35:23;27.20;;;19.10;;
52432;SDS011;38352;53.244;6.594;2023-04-06T11:37:50;26.65;;;18.38;;
52432;SDS011;38352;53.244;6.594;2023-04-06T11:40:20;32.65;;;20.45;;
52432;SDS011;38352;53.244;6.594;2023-04-06T11:42:51;33.63;;;21.48;;
52432;SDS011;38352;53.244;6.594;2023-04-06T11:45:17;30.35;;;20.05;;
52432;SDS011;38352;53.244;6.594;2023-04-06T11:47:43;31.70;;;20.02;;
52432;SDS011;38352;53.244;6.594;2023-04-06T11:50:10;35.45;;;21.13;;
52432;SDS011;38352;53.244;6.594;2023-04-06T11:52:38;33.28;;;20.55;;
52432;SDS011;38352;53.244;6.594;2023-04-06T11:55:17;31.45;;;20.58;;
52432;SDS011;38352;53.244;6.594;2023-04-06T11:57:43;30.70;;;19.75;;
52432;SDS011;38352;53.244;6.594;2023-04-06T12:00:10;28.27;;;18.80;;
52432;SDS011;38352;53.244;6.594;2023-04-06T12:02:37;34.67;;;21.10;;
52432;SDS011;38352;53.244;6.594;2023-04-06T12:05:04;30.10;;;19.83;;
52432;SDS011;38352;53.244;6.594;2023-04-06T12:07:31;31.13;;;19.83;;
52432;SDS011;38352;53.244;6.594;2023-04-06T12:09:58;30.95;;;19.75;;
52432;SDS011;38352;53.244;6.594;2023-04-06T12:12:24;31.25;;;20.27;;
52432;SDS011;38352;53.244;6.594;2023-04-06T12:14:50;37.08;;;21.83;;
52432;SDS011;38352;53.244;6.594;2023-04-06T12:17:18;34.70;;;20.20;;
52432;SDS011;38352;53.244;6.594;2023-04-06T12:19:45;32.95;;;18.88;;
52432;SDS011;38352;53.244;6.594;2023-04-06T12:22:11;33.63;;;19.15;;
52432;SDS011;38352;53.244;6.594;2023-04-06T12:24:37;31.52;;;20.08;;
52432;SDS011;38352;53.244;6.594;2023-04-06T12:27:03;29.85;;;20.08;;
52432;SDS011;38352;53.244;6.594;2023-04-06T12:29:29;31.60;;;19.85;;
52432;SDS011;38352;53.244;6.594;2023-04-06T12:31:55;31.73;;;19.88;;
52432;SDS011;38352;53.244;6.594;2023-04-06T12:34:21;29.73;;;20.30;;
52432;SDS011;38352;53.244;6.594;2023-04-06T12:36:47;32.05;;;20.75;;
52432;SDS011;38352;53.244;6.594;2023-04-06T12:39:14;34.85;;;20.08;;
52432;SDS011;38352;53.244;6.594;2023-04-06T12:41:41;32.17;;;20.60;;
52432;SDS011;38352;53.244;6.594;2023-04-06T12:44:07;35.53;;;20.42;;
52432;SDS011;38352;53.244;6.594;2023-04-06T12:46:34;34.25;;;20.50;;
52432;SDS011;38352;53.244;6.594;2023-04-06T12:49:00;33.10;;;19.63;;
52432;SDS011;38352;53.244;6.594;2023-04-06T12:51:29;31.08;;;19.45;;
52432;SDS011;38352;53.244;6.594;2023-04-06T12:53:56;27.77;;;18.92;;
52432;SDS011;38352;53.244;6.594;2023-04-06T12:56:22;30.30;;;19.05;;
52432;SDS011;38352;53.244;6.594;2023-04-06T12:58:50;27.92;;;18.48;;
52432;SDS011;38352;53.244;6.594;2023-04-06T13:01:16;34.40;;;20.30;;
52432;SDS011;38352;53.244;6.594;2023-04-06T13:03:43;30.15;;;19.63;;
52432;SDS011;38352;53.244;6.594;2023-04-06T13:06:09;32.42;;;20.33;;
52432;SDS011;38352;53.244;6.594;2023-04-06T13:08:36;30.52;;;19.80;;
52432;SDS011;38352;53.244;6.594;2023-04-06T13:11:03;30.85;;;20.15;;
52432;SDS011;38352;53.244;6.594;2023-04-06T13:13:29;31.33;;;19.50;;
52432;SDS011;38352;53.244;6.594;2023-04-06T13:15:59;32.10;;;19.38;;
52432;SDS011;38352;53.244;6.594;2023-04-06T13:18:27;30.80;;;19.45;;
52432;SDS011;38352;53.244;6.594;2023-04-06T13:20:53;28.98;;;19.17;;
52432;SDS011;38352;53.244;6.594;2023-04-06T13:23:21;28.20;;;18.80;;
52432;SDS011;38352;53.244;6.594;2023-04-06T13:25:47;30.70;;;19.35;;
52432;SDS011;38352;53.244;6.594;2023-04-06T13:28:13;28.90;;;19.90;;
52432;SDS011;38352;53.244;6.594;2023-04-06T13:30:39;31.60;;;20.08;;
52432;SDS011;38352;53.244;6.594;2023-04-06T13:33:06;28.77;;;18.45;;
52432;SDS011;38352;53.244;6.594;2023-04-06T13:35:32;29.52;;;18.95;;
52432;SDS011;38352;53.244;6.594;2023-04-06T13:38:00;30.70;;;19.42;;
52432;SDS011;38352;53.244;6.594;2023-04-06T13:40:26;30.63;;;19.55;;
52432;SDS011;38352;53.244;6.594;2023-04-06T13:42:53;31.10;;;19.17;;
52432;SDS011;38352;53.244;6.594;2023-04-06T13:45:19;30.08;;;20.00;;
52432;SDS011;38352;53.244;6.594;2023-04-06T13:47:45;29.45;;;19.60;;
52432;SDS011;38352;53.244;6.594;2023-04-06T13:50:11;29.50;;;19.02;;
52432;SDS011;38352;53.244;6.594;2023-04-06T13:52:37;28.73;;;19.27;;
52432;SDS011;38352;53.244;6.594;2023-04-06T13:55:03;28.23;;;18.85;;
52432;SDS011;38352;53.244;6.594;2023-04-06T13:57:30;29.10;;;18.73;;
52432;SDS011;38352;53.244;6.594;2023-04-06T13:59:56;30.38;;;19.20;;
52432;SDS011;38352;53.244;6.594;2023-04-06T14:02:22;32.13;;;18.77;;
52432;SDS011;38352;53.244;6.594;2023-04-06T14:04:52;31.92;;;18.58;;
52432;SDS011;38352;53.244;6.594;2023-04-06T14:07:20;29.42;;;18.35;;
52432;SDS011;38352;53.244;6.594;2023-04-06T14:09:47;27.20;;;17.67;;
52432;SDS011;38352;53.244;6.594;2023-04-06T14:12:13;28.65;;;18.05;;
52432;SDS011;38352;53.244;6.594;2023-04-06T14:14:39;25.35;;;16.27;;
52432;SDS011;38352;53.244;6.594;2023-04-06T14:17:05;21.08;;;13.10;;
52432;SDS011;38352;53.244;6.594;2023-04-06T14:19:31;24.30;;;13.70;;
52432;SDS011;38352;53.244;6.594;2023-04-06T14:21:57;25.88;;;13.93;;
52432;SDS011;38352;53.244;6.594;2023-04-06T14:24:24;24.83;;;13.80;;
52432;SDS011;38352;53.244;6.594;2023-04-06T14:26:50;25.17;;;14.35;;
52432;SDS011;38352;53.244;6.594;2023-04-06T14:29:16;22.90;;;14.75;;
52432;SDS011;38352;53.244;6.594;2023-04-06T14:31:42;22.33;;;14.32;;